sensor_id;sensor_type;location;lat;lon;timestamp;P1;durP1;ratioP1;P2;durP2;ratioP2
80113;SDS011;69422;45.662;18.992;2023-05-07T00:01:48;4.72;;;3.72;;
80113;SDS011;69422;45.662;18.992;2023-05-07T00:04:14;5.25;;;3.88;;
80113;SDS011;69422;45.662;18.992;2023-05-07T00:06:39;6.75;;;4.55;;
80113;SDS011;69422;45.662;18.992;2023-05-07T00:09:05;4.78;;;3.60;;
80113;SDS011;69422;45.662;18.992;2023-05-07T00:11:31;4.20;;;3.60;;
80113;SDS011;69422;45.662;18.992;2023-05-07T00:13:57;6.50;;;4.00;;
80113;SDS011;69422;45.662;18.992;2023-05-07T00:16:22;4.85;;;3.60;;
80113;SDS011;69422;45.662;18.992;2023-05-07T00:18:48;5.53;;;4.05;;
80113;SDS011;69422;45.662;18.992;2023-05-07T00:21:13;4.20;;;3.70;;
80113;SDS011;69422;45.662;18.992;2023-05-07T00:23:39;4.63;;;3.72;;
80113;SDS011;69422;45.662;18.992;2023-05-07T00:26:04;4.47;;;3.50;;
80113;SDS011;69422;45.662;18.992;2023-05-07T00:28:29;4.35;;;3.90;;
80113;SDS011;69422;45.662;18.992;2023-05-07T00:30:55;5.47;;;3.47;;
80113;SDS011;69422;45.662;18.992;2023-05-07T00:33:21;5.38;;;4.03;;
80113;SDS011;69422;45.662;18.992;2023-05-07T00:35:47;5.05;;;3.97;;
80113;SDS011;69422;45.662;18.992;2023-05-07T00:38:12;12.45;;;4.85;;
80113;SDS011;69422;45.662;18.992;2023-05-07T00:40:38;6.15;;;3.70;;
80113;SDS011;69422;45.662;18.992;2023-05-07T00:43:03;5.00;;;3.70;;
80113;SDS011;69422;45.662;18.992;2023-05-07T00:45:29;6.25;;;4.03;;
80113;SDS011;69422;45.662;18.992;2023-05-07T00:47:58;4.90;;;4.10;;
80113;SDS011;69422;45.662;18.992;2023-05-07T00:50:25;5.25;;;3.70;;
80113;SDS011;69422;45.662;18.992;2023-05-07T00:52:52;4.30;;;3.33;;
80113;SDS011;69422;45.662;18.992;2023-05-07T00:55:17;5.05;;;3.83;;
80113;SDS011;69422;45.662;18.992;2023-05-07T00:57:43;6.10;;;3.80;;
80113;SDS011;69422;45.662;18.992;2023-05-07T01:00:09;5.93;;;4.40;;
80113;SDS011;69422;45.662;18.992;2023-05-07T01:02:35;5.15;;;3.80;;
80113;SDS011;69422;45.662;18.992;2023-05-07T01:05:01;6.97;;;4.00;;
80113;SDS011;69422;45.662;18.992;2023-05-07T01:07:31;6.57;;;3.95;;
80113;SDS011;69422;45.662;18.992;2023-05-07T01:09:57;6.45;;;3.85;;
80113;SDS011;69422;45.662;18.992;2023-05-07T01:12:22;5.90;;;4.00;;
80113;SDS011;69422;45.662;18.992;2023-05-07T01:14:48;5.40;;;3.90;;
80113;SDS011;69422;45.662;18.992;2023-05-07T01:17:15;6.75;;;4.45;;
80113;SDS011;69422;45.662;18.992;2023-05-07T01:19:40;5.40;;;4.07;;
80113;SDS011;69422;45.662;18.992;2023-05-07T01:22:09;4.35;;;3.45;;
80113;SDS011;69422;45.662;18.992;2023-05-07T01:24:39;5.55;;;4.10;;
80113;SDS011;69422;45.662;18.992;2023-05-07T01:27:05;6.75;;;3.92;;
80113;SDS011;69422;45.662;18.992;2023-05-07T01:29:30;5.90;;;4.10;;
80113;SDS011;69422;45.662;18.992;2023-05-07T01:31:59;6.65;;;3.92;;
80113;SDS011;69422;45.662;18.992;2023-05-07T01:34:25;4.63;;;3.80;;
80113;SDS011;69422;45.662;18.992;2023-05-07T01:36:53;4.82;;;3.47;;
80113;SDS011;69422;45.662;18.992;2023-05-07T01:39:20;5.78;;;3.85;;
80113;SDS011;69422;45.662;18.992;2023-05-07T01:41:48;5.43;;;3.78;;
80113;SDS011;69422;45.662;18.992;2023-05-07T01:44:13;5.22;;;3.75;;
80113;SDS011;69422;45.662;18.992;2023-05-07T01:46:39;6.20;;;4.70;;
80113;SDS011;69422;45.662;18.992;2023-05-07T01:49:05;6.95;;;4.18;;
80113;SDS011;69422;45.662;18.992;2023-05-07T01:51:30;5.75;;;4.30;;
80113;SDS011;69422;45.662;18.992;2023-05-07T01:53:56;6.35;;;4.20;;
80113;SDS011;69422;45.662;18.992;2023-05-07T01:56:21;5.60;;;3.95;;
80113;SDS011;69422;45.662;18.992;2023-05-07T02:02:09;5.90;;;4.03;;
80113;SDS011;69422;45.662;18.992;2023-05-07T02:04:34;5.22;;;3.90;;
80113;SDS011;69422;45.662;18.992;2023-05-07T02:07:00;4.90;;;3.80;;
80113;SDS011;69422;45.662;18.992;2023-05-07T02:09:25;5.60;;;3.83;;
80113;SDS011;69422;45.662;18.992;2023-05-07T02:11:51;4.15;;;3.47;;
80113;SDS011;69422;45.662;18.992;2023-05-07T02:14:16;5.70;;;4.05;;
80113;SDS011;69422;45.662;18.992;2023-05-07T02:16:41;5.15;;;4.50;;
80113;SDS011;69422;45.662;18.992;2023-05-07T02:19:07;6.40;;;4.03;;
80113;SDS011;69422;45.662;18.992;2023-05-07T02:21:32;4.45;;;3.80;;
80113;SDS011;69422;45.662;18.992;2023-05-07T02:23:57;5.18;;;3.65;;
80113;SDS011;69422;45.662;18.992;2023-05-07T02:26:23;5.20;;;3.72;;
80113;SDS011;69422;45.662;18.992;2023-05-07T02:28:48;5.68;;;3.83;;
80113;SDS011;69422;45.662;18.992;2023-05-07T02:31:14;4.30;;;3.35;;
80113;SDS011;69422;45.662;18.992;2023-05-07T02:33:39;4.47;;;3.67;;
80113;SDS011;69422;45.662;18.992;2023-05-07T02:36:10;6.18;;;4.22;;
80113;SDS011;69422;45.662;18.992;2023-05-07T02:38:36;4.93;;;3.47;;
80113;SDS011;69422;45.662;18.992;2023-05-07T02:41:02;5.07;;;3.90;;
80113;SDS011;69422;45.662;18.992;2023-05-07T02:43:27;5.15;;;3.95;;
80113;SDS011;69422;45.662;18.992;2023-05-07T02:46:03;4.60;;;3.90;;
80113;SDS011;69422;45.662;18.992;2023-05-07T02:48:29;5.07;;;3.47;;
80113;SDS011;69422;45.662;18.992;2023-05-07T02:50:55;4.45;;;3.58;;
80113;SDS011;69422;45.662;18.992;2023-05-07T02:53:20;5.07;;;4.18;;
80113;SDS011;69422;45.662;18.992;2023-05-07T02:55:45;6.18;;;3.80;;
80113;SDS011;69422;45.662;18.992;2023-05-07T02:58:11;4.82;;;3.92;;
80113;SDS011;69422;45.662;18.992;2023-05-07T03:00:36;5.15;;;3.90;;
80113;SDS011;69422;45.662;18.992;2023-05-07T03:03:02;6.93;;;3.92;;
80113;SDS011;69422;45.662;18.992;2023-05-07T03:05:27;4.43;;;3.70;;
80113;SDS011;69422;45.662;18.992;2023-05-07T03:07:53;5.20;;;4.20;;
80113;SDS011;69422;45.662;18.992;2023-05-07T03:10:18;4.07;;;3.67;;
80113;SDS011;69422;45.662;18.992;2023-05-07T03:12:44;5.55;;;3.97;;
80113;SDS011;69422;45.662;18.992;2023-05-07T03:15:09;5.80;;;4.03;;
80113;SDS011;69422;45.662;18.992;2023-05-07T03:17:36;5.53;;;4.10;;
80113;SDS011;69422;45.662;18.992;2023-05-07T03:20:02;7.00;;;4.20;;
80113;SDS011;69422;45.662;18.992;2023-05-07T03:22:27;6.05;;;4.25;;
80113;SDS011;69422;45.662;18.992;2023-05-07T03:24:53;5.22;;;3.58;;
80113;SDS011;69422;45.662;18.992;2023-05-07T03:27:18;8.60;;;4.57;;
80113;SDS011;69422;45.662;18.992;2023-05-07T03:29:43;5.07;;;3.92;;
80113;SDS011;69422;45.662;18.992;2023-05-07T03:32:09;5.03;;;4.10;;
80113;SDS011;69422;45.662;18.992;2023-05-07T03:34:34;4.97;;;3.72;;
80113;SDS011;69422;45.662;18.992;2023-05-07T03:37:00;5.50;;;4.35;;
80113;SDS011;69422;45.662;18.992;2023-05-07T03:39:25;5.43;;;3.72;;
80113;SDS011;69422;45.662;18.992;2023-05-07T03:41:50;5.80;;;3.58;;
80113;SDS011;69422;45.662;18.992;2023-05-07T03:44:16;6.30;;;4.35;;
80113;SDS011;69422;45.662;18.992;2023-05-07T03:46:41;4.20;;;3.33;;
80113;SDS011;69422;45.662;18.992;2023-05-07T03:49:07;4.50;;;3.97;;
80113;SDS011;69422;45.662;18.992;2023-05-07T03:51:33;5.43;;;4.00;;
80113;SDS011;69422;45.662;18.992;2023-05-07T03:53:58;4.72;;;3.92;;
80113;SDS011;69422;45.662;18.992;2023-05-07T03:56:23;6.10;;;4.10;;
80113;SDS011;69422;45.662;18.992;2023-05-07T03:58:51;4.57;;;3.95;;
80113;SDS011;69422;45.662;18.992;2023-05-07T04:01:17;5.03;;;4.00;;
80113;SDS011;69422;45.662;18.992;2023-05-07T04:03:43;4.28;;;3.65;;
80113;SDS011;69422;45.662;18.992;2023-05-07T04:06:08;6.38;;;4.57;;
80113;SDS011;69422;45.662;18.992;2023-05-07T04:08:33;5.43;;;3.67;;
80113;SDS011;69422;45.662;18.992;2023-05-07T04:10:59;5.25;;;4.05;;
80113;SDS011;69422;45.662;18.992;2023-05-07T04:13:25;6.40;;;4.00;;
80113;SDS011;69422;45.662;18.992;2023-05-07T04:15:51;6.00;;;3.97;;
80113;SDS011;69422;45.662;18.992;2023-05-07T04:18:17;5.60;;;4.10;;
80113;SDS011;69422;45.662;18.992;2023-05-07T04:20:43;7.22;;;4.72;;
80113;SDS011;69422;45.662;18.992;2023-05-07T04:23:09;5.85;;;4.15;;
80113;SDS011;69422;45.662;18.992;2023-05-07T04:25:34;6.55;;;4.13;;
80113;SDS011;69422;45.662;18.992;2023-05-07T04:28:00;6.25;;;3.95;;
80113;SDS011;69422;45.662;18.992;2023-05-07T04:30:25;7.05;;;4.10;;
80113;SDS011;69422;45.662;18.992;2023-05-07T04:32:51;6.00;;;4.00;;
80113;SDS011;69422;45.662;18.992;2023-05-07T04:35:17;7.20;;;4.32;;
80113;SDS011;69422;45.662;18.992;2023-05-07T04:37:43;7.90;;;4.38;;
80113;SDS011;69422;45.662;18.992;2023-05-07T04:40:08;6.55;;;4.40;;
80113;SDS011;69422;45.662;18.992;2023-05-07T04:42:34;5.60;;;4.43;;
80113;SDS011;69422;45.662;18.992;2023-05-07T04:45:00;5.70;;;4.10;;
80113;SDS011;69422;45.662;18.992;2023-05-07T04:47:26;6.28;;;4.63;;
80113;SDS011;69422;45.662;18.992;2023-05-07T04:49:52;5.53;;;4.70;;
80113;SDS011;69422;45.662;18.992;2023-05-07T04:52:17;6.25;;;5.15;;
80113;SDS011;69422;45.662;18.992;2023-05-07T04:54:42;5.82;;;4.07;;
80113;SDS011;69422;45.662;18.992;2023-05-07T04:57:08;6.75;;;4.60;;
80113;SDS011;69422;45.662;18.992;2023-05-07T04:59:34;11.50;;;5.32;;
80113;SDS011;69422;45.662;18.992;2023-05-07T05:01:59;8.05;;;5.30;;
80113;SDS011;69422;45.662;18.992;2023-05-07T05:04:25;9.93;;;5.15;;
80113;SDS011;69422;45.662;18.992;2023-05-07T05:06:50;8.02;;;5.28;;
80113;SDS011;69422;45.662;18.992;2023-05-07T05:09:16;13.18;;;5.70;;
80113;SDS011;69422;45.662;18.992;2023-05-07T05:11:41;9.73;;;5.50;;
80113;SDS011;69422;45.662;18.992;2023-05-07T05:14:07;8.63;;;5.57;;
80113;SDS011;69422;45.662;18.992;2023-05-07T05:16:32;9.60;;;5.50;;
80113;SDS011;69422;45.662;18.992;2023-05-07T05:18:58;6.28;;;5.45;;
80113;SDS011;69422;45.662;18.992;2023-05-07T05:21:23;8.73;;;5.78;;
80113;SDS011;69422;45.662;18.992;2023-05-07T05:23:49;10.65;;;6.03;;
80113;SDS011;69422;45.662;18.992;2023-05-07T05:26:14;8.20;;;5.80;;
80113;SDS011;69422;45.662;18.992;2023-05-07T05:28:39;6.95;;;6.00;;
80113;SDS011;69422;45.662;18.992;2023-05-07T05:31:05;7.45;;;5.28;;
80113;SDS011;69422;45.662;18.992;2023-05-07T05:33:31;7.38;;;5.53;;
80113;SDS011;69422;45.662;18.992;2023-05-07T05:35:56;9.38;;;5.72;;
80113;SDS011;69422;45.662;18.992;2023-05-07T05:38:22;11.48;;;5.63;;
80113;SDS011;69422;45.662;18.992;2023-05-07T05:40:47;7.78;;;5.60;;
80113;SDS011;69422;45.662;18.992;2023-05-07T05:43:13;8.60;;;5.50;;
80113;SDS011;69422;45.662;18.992;2023-05-07T05:45:39;7.60;;;5.38;;
80113;SDS011;69422;45.662;18.992;2023-05-07T05:48:05;14.02;;;5.50;;
80113;SDS011;69422;45.662;18.992;2023-05-07T05:50:31;8.77;;;5.57;;
80113;SDS011;69422;45.662;18.992;2023-05-07T05:52:56;9.95;;;5.75;;
80113;SDS011;69422;45.662;18.992;2023-05-07T05:55:22;9.60;;;5.32;;
80113;SDS011;69422;45.662;18.992;2023-05-07T05:57:48;7.50;;;5.25;;
80113;SDS011;69422;45.662;18.992;2023-05-07T06:00:15;8.20;;;4.80;;
80113;SDS011;69422;45.662;18.992;2023-05-07T06:02:41;7.60;;;5.22;;
80113;SDS011;69422;45.662;18.992;2023-05-07T06:05:07;8.30;;;5.05;;
80113;SDS011;69422;45.662;18.992;2023-05-07T06:07:33;7.65;;;5.15;;
80113;SDS011;69422;45.662;18.992;2023-05-07T06:09:59;8.43;;;5.00;;
80113;SDS011;69422;45.662;18.992;2023-05-07T06:12:25;8.80;;;5.28;;
80113;SDS011;69422;45.662;18.992;2023-05-07T06:14:50;7.80;;;4.97;;
80113;SDS011;69422;45.662;18.992;2023-05-07T06:17:16;5.35;;;4.85;;
80113;SDS011;69422;45.662;18.992;2023-05-07T06:19:41;6.05;;;5.05;;
80113;SDS011;69422;45.662;18.992;2023-05-07T06:22:07;6.97;;;5.07;;
80113;SDS011;69422;45.662;18.992;2023-05-07T06:24:32;7.05;;;5.30;;
80113;SDS011;69422;45.662;18.992;2023-05-07T06:26:58;7.90;;;5.63;;
80113;SDS011;69422;45.662;18.992;2023-05-07T06:29:23;6.78;;;4.90;;
80113;SDS011;69422;45.662;18.992;2023-05-07T06:31:52;12.32;;;5.20;;
80113;SDS011;69422;45.662;18.992;2023-05-07T06:34:18;7.82;;;4.93;;
80113;SDS011;69422;45.662;18.992;2023-05-07T06:36:43;8.23;;;5.63;;
80113;SDS011;69422;45.662;18.992;2023-05-07T06:39:08;12.90;;;5.70;;
80113;SDS011;69422;45.662;18.992;2023-05-07T06:41:34;9.10;;;6.20;;
80113;SDS011;69422;45.662;18.992;2023-05-07T06:44:01;11.30;;;6.25;;
80113;SDS011;69422;45.662;18.992;2023-05-07T06:46:27;7.72;;;5.40;;
80113;SDS011;69422;45.662;18.992;2023-05-07T06:48:53;20.23;;;7.03;;
80113;SDS011;69422;45.662;18.992;2023-05-07T06:51:18;7.22;;;5.45;;
80113;SDS011;69422;45.662;18.992;2023-05-07T06:53:43;7.85;;;4.80;;
80113;SDS011;69422;45.662;18.992;2023-05-07T06:56:09;7.03;;;5.10;;
80113;SDS011;69422;45.662;18.992;2023-05-07T06:58:34;7.43;;;5.07;;
80113;SDS011;69422;45.662;18.992;2023-05-07T07:01:00;7.30;;;4.40;;
80113;SDS011;69422;45.662;18.992;2023-05-07T07:03:25;7.03;;;4.78;;
80113;SDS011;69422;45.662;18.992;2023-05-07T07:05:51;8.45;;;5.40;;
80113;SDS011;69422;45.662;18.992;2023-05-07T07:08:18;8.65;;;4.50;;
80113;SDS011;69422;45.662;18.992;2023-05-07T07:10:43;6.93;;;4.57;;
80113;SDS011;69422;45.662;18.992;2023-05-07T07:13:09;6.93;;;4.35;;
80113;SDS011;69422;45.662;18.992;2023-05-07T07:15:34;7.35;;;4.30;;
80113;SDS011;69422;45.662;18.992;2023-05-07T07:17:59;6.80;;;4.47;;
80113;SDS011;69422;45.662;18.992;2023-05-07T07:20:25;6.93;;;4.63;;
80113;SDS011;69422;45.662;18.992;2023-05-07T07:22:50;5.63;;;4.05;;
80113;SDS011;69422;45.662;18.992;2023-05-07T07:25:16;6.70;;;4.20;;
80113;SDS011;69422;45.662;18.992;2023-05-07T07:27:41;5.07;;;4.15;;
80113;SDS011;69422;45.662;18.992;2023-05-07T07:30:07;5.18;;;3.92;;
80113;SDS011;69422;45.662;18.992;2023-05-07T07:32:33;5.38;;;4.25;;
80113;SDS011;69422;45.662;18.992;2023-05-07T07:34:59;7.28;;;4.00;;
80113;SDS011;69422;45.662;18.992;2023-05-07T07:37:24;5.70;;;3.95;;
80113;SDS011;69422;45.662;18.992;2023-05-07T07:39:50;5.15;;;3.50;;
80113;SDS011;69422;45.662;18.992;2023-05-07T07:42:16;4.65;;;3.83;;
80113;SDS011;69422;45.662;18.992;2023-05-07T07:44:41;4.78;;;3.80;;
80113;SDS011;69422;45.662;18.992;2023-05-07T07:47:06;5.75;;;3.88;;
80113;SDS011;69422;45.662;18.992;2023-05-07T07:49:32;4.57;;;3.42;;
80113;SDS011;69422;45.662;18.992;2023-05-07T07:51:57;3.92;;;3.53;;
80113;SDS011;69422;45.662;18.992;2023-05-07T07:54:24;4.25;;;3.35;;
80113;SDS011;69422;45.662;18.992;2023-05-07T07:56:50;6.57;;;3.83;;
80113;SDS011;69422;45.662;18.992;2023-05-07T07:59:15;5.00;;;3.53;;
80113;SDS011;69422;45.662;18.992;2023-05-07T08:01:43;5.25;;;3.55;;
80113;SDS011;69422;45.662;18.992;2023-05-07T08:04:09;6.05;;;3.63;;
80113;SDS011;69422;45.662;18.992;2023-05-07T08:06:35;4.22;;;3.70;;
80113;SDS011;69422;45.662;18.992;2023-05-07T08:09:01;5.45;;;3.78;;
80113;SDS011;69422;45.662;18.992;2023-05-07T08:11:27;4.32;;;3.65;;
80113;SDS011;69422;45.662;18.992;2023-05-07T08:13:53;13.25;;;4.75;;
80113;SDS011;69422;45.662;18.992;2023-05-07T08:16:19;6.22;;;4.20;;
80113;SDS011;69422;45.662;18.992;2023-05-07T08:18:45;5.25;;;4.10;;
80113;SDS011;69422;45.662;18.992;2023-05-07T08:21:10;9.18;;;3.90;;
80113;SDS011;69422;45.662;18.992;2023-05-07T08:23:36;4.70;;;3.58;;
80113;SDS011;69422;45.662;18.992;2023-05-07T08:26:02;5.80;;;3.95;;
80113;SDS011;69422;45.662;18.992;2023-05-07T08:28:27;6.10;;;3.13;;
80113;SDS011;69422;45.662;18.992;2023-05-07T08:30:53;5.93;;;3.97;;
80113;SDS011;69422;45.662;18.992;2023-05-07T08:33:18;4.85;;;3.67;;
80113;SDS011;69422;45.662;18.992;2023-05-07T08:35:44;4.65;;;4.10;;
80113;SDS011;69422;45.662;18.992;2023-05-07T08:38:09;5.53;;;3.80;;
80113;SDS011;69422;45.662;18.992;2023-05-07T08:40:38;4.18;;;3.78;;
80113;SDS011;69422;45.662;18.992;2023-05-07T08:43:07;5.22;;;3.65;;
80113;SDS011;69422;45.662;18.992;2023-05-07T08:45:33;5.68;;;3.58;;
80113;SDS011;69422;45.662;18.992;2023-05-07T08:48:01;8.40;;;3.65;;
80113;SDS011;69422;45.662;18.992;2023-05-07T08:50:28;4.97;;;3.65;;
80113;SDS011;69422;45.662;18.992;2023-05-07T08:52:53;4.40;;;3.78;;
80113;SDS011;69422;45.662;18.992;2023-05-07T08:55:19;3.85;;;3.05;;
80113;SDS011;69422;45.662;18.992;2023-05-07T08:57:45;6.05;;;3.50;;
80113;SDS011;69422;45.662;18.992;2023-05-07T09:00:12;4.22;;;3.53;;
80113;SDS011;69422;45.662;18.992;2023-05-07T09:02:38;6.25;;;3.78;;
80113;SDS011;69422;45.662;18.992;2023-05-07T09:05:03;5.57;;;3.53;;
80113;SDS011;69422;45.662;18.992;2023-05-07T09:07:29;8.02;;;3.90;;
80113;SDS011;69422;45.662;18.992;2023-05-07T09:09:55;4.30;;;3.20;;
80113;SDS011;69422;45.662;18.992;2023-05-07T09:12:22;5.38;;;3.47;;
80113;SDS011;69422;45.662;18.992;2023-05-07T09:14:47;4.55;;;3.88;;
80113;SDS011;69422;45.662;18.992;2023-05-07T09:17:14;5.45;;;3.25;;
80113;SDS011;69422;45.662;18.992;2023-05-07T09:19:40;5.00;;;3.42;;
80113;SDS011;69422;45.662;18.992;2023-05-07T09:22:06;3.75;;;3.03;;
80113;SDS011;69422;45.662;18.992;2023-05-07T09:27:01;6.63;;;3.35;;
80113;SDS011;69422;45.662;18.992;2023-05-07T09:29:27;4.07;;;3.25;;
80113;SDS011;69422;45.662;18.992;2023-05-07T09:31:55;4.47;;;3.28;;
80113;SDS011;69422;45.662;18.992;2023-05-07T09:34:21;4.07;;;2.63;;
80113;SDS011;69422;45.662;18.992;2023-05-07T09:36:47;4.40;;;3.42;;
80113;SDS011;69422;45.662;18.992;2023-05-07T09:39:12;4.50;;;3.70;;
80113;SDS011;69422;45.662;18.992;2023-05-07T09:41:45;4.60;;;3.40;;
80113;SDS011;69422;45.662;18.992;2023-05-07T09:44:12;4.15;;;2.72;;
80113;SDS011;69422;45.662;18.992;2023-05-07T09:46:38;3.88;;;2.70;;
80113;SDS011;69422;45.662;18.992;2023-05-07T09:49:04;3.97;;;2.92;;
80113;SDS011;69422;45.662;18.992;2023-05-07T09:51:39;6.68;;;3.15;;
80113;SDS011;69422;45.662;18.992;2023-05-07T09:54:07;3.85;;;3.13;;
80113;SDS011;69422;45.662;18.992;2023-05-07T09:56:33;4.82;;;3.10;;
80113;SDS011;69422;45.662;18.992;2023-05-07T09:59:01;3.92;;;3.53;;
80113;SDS011;69422;45.662;18.992;2023-05-07T10:01:29;3.97;;;2.65;;
80113;SDS011;69422;45.662;18.992;2023-05-07T10:03:56;4.45;;;2.97;;
80113;SDS011;69422;45.662;18.992;2023-05-07T10:06:23;4.05;;;3.22;;
80113;SDS011;69422;45.662;18.992;2023-05-07T10:08:49;5.15;;;3.15;;
80113;SDS011;69422;45.662;18.992;2023-05-07T10:11:16;3.28;;;2.90;;
80113;SDS011;69422;45.662;18.992;2023-05-07T10:13:42;5.50;;;3.10;;
80113;SDS011;69422;45.662;18.992;2023-05-07T10:16:08;3.58;;;3.00;;
80113;SDS011;69422;45.662;18.992;2023-05-07T10:18:34;4.82;;;2.85;;
80113;SDS011;69422;45.662;18.992;2023-05-07T10:26:47;3.60;;;2.83;;
80113;SDS011;69422;45.662;18.992;2023-05-07T10:29:16;4.80;;;3.10;;
80113;SDS011;69422;45.662;18.992;2023-05-07T10:31:57;3.17;;;2.60;;
80113;SDS011;69422;45.662;18.992;2023-05-07T10:34:26;3.42;;;2.78;;
80113;SDS011;69422;45.662;18.992;2023-05-07T10:36:55;3.58;;;2.90;;
80113;SDS011;69422;45.662;18.992;2023-05-07T10:39:21;4.78;;;3.55;;
80113;SDS011;69422;45.662;18.992;2023-05-07T10:41:47;3.90;;;2.80;;
80113;SDS011;69422;45.662;18.992;2023-05-07T10:44:28;4.40;;;3.20;;
80113;SDS011;69422;45.662;18.992;2023-05-07T10:47:06;4.15;;;3.13;;
80113;SDS011;69422;45.662;18.992;2023-05-07T10:49:34;6.28;;;3.50;;
80113;SDS011;69422;45.662;18.992;2023-05-07T10:54:45;4.78;;;3.40;;
80113;SDS011;69422;45.662;18.992;2023-05-07T11:00:41;4.25;;;3.40;;
80113;SDS011;69422;45.662;18.992;2023-05-07T11:05:28;4.75;;;4.18;;
80113;SDS011;69422;45.662;18.992;2023-05-07T11:07:55;3.83;;;2.97;;
80113;SDS011;69422;45.662;18.992;2023-05-07T11:10:21;4.90;;;3.38;;
80113;SDS011;69422;45.662;18.992;2023-05-07T11:12:47;5.88;;;3.05;;
80113;SDS011;69422;45.662;18.992;2023-05-07T11:15:14;4.82;;;4.25;;
80113;SDS011;69422;45.662;18.992;2023-05-07T11:17:56;6.32;;;3.30;;
80113;SDS011;69422;45.662;18.992;2023-05-07T11:26:02;5.13;;;3.65;;
80113;SDS011;69422;45.662;18.992;2023-05-07T11:28:29;4.68;;;3.63;;
80113;SDS011;69422;45.662;18.992;2023-05-07T11:30:56;4.97;;;3.30;;
80113;SDS011;69422;45.662;18.992;2023-05-07T11:33:22;3.63;;;2.65;;
80113;SDS011;69422;45.662;18.992;2023-05-07T11:35:47;4.28;;;3.30;;
80113;SDS011;69422;45.662;18.992;2023-05-07T11:38:13;3.83;;;3.25;;
80113;SDS011;69422;45.662;18.992;2023-05-07T11:40:57;4.65;;;3.90;;
80113;SDS011;69422;45.662;18.992;2023-05-07T11:43:25;5.18;;;3.33;;
80113;SDS011;69422;45.662;18.992;2023-05-07T11:45:51;3.75;;;3.17;;
80113;SDS011;69422;45.662;18.992;2023-05-07T11:48:17;4.50;;;3.80;;
80113;SDS011;69422;45.662;18.992;2023-05-07T11:50:52;5.43;;;3.50;;
80113;SDS011;69422;45.662;18.992;2023-05-07T11:53:27;3.85;;;3.42;;
80113;SDS011;69422;45.662;18.992;2023-05-07T11:55:54;4.80;;;3.60;;
80113;SDS011;69422;45.662;18.992;2023-05-07T11:58:21;5.03;;;3.55;;
80113;SDS011;69422;45.662;18.992;2023-05-07T12:00:50;7.22;;;3.55;;
80113;SDS011;69422;45.662;18.992;2023-05-07T12:03:16;4.07;;;3.00;;
80113;SDS011;69422;45.662;18.992;2023-05-07T12:05:43;4.53;;;3.50;;
80113;SDS011;69422;45.662;18.992;2023-05-07T12:08:13;6.97;;;3.20;;
80113;SDS011;69422;45.662;18.992;2023-05-07T12:10:42;4.47;;;3.30;;
80113;SDS011;69422;45.662;18.992;2023-05-07T12:13:41;7.63;;;3.78;;
80113;SDS011;69422;45.662;18.992;2023-05-07T12:16:00;5.45;;;4.22;;
80113;SDS011;69422;45.662;18.992;2023-05-07T12:20:53;4.68;;;3.35;;
80113;SDS011;69422;45.662;18.992;2023-05-07T12:23:19;4.93;;;3.65;;
80113;SDS011;69422;45.662;18.992;2023-05-07T12:25:46;5.45;;;3.42;;
80113;SDS011;69422;45.662;18.992;2023-05-07T12:28:12;5.55;;;3.70;;
80113;SDS011;69422;45.662;18.992;2023-05-07T12:30:45;5.68;;;3.80;;
80113;SDS011;69422;45.662;18.992;2023-05-07T12:33:12;7.10;;;3.70;;
80113;SDS011;69422;45.662;18.992;2023-05-07T12:35:40;5.00;;;3.80;;
80113;SDS011;69422;45.662;18.992;2023-05-07T12:38:13;6.82;;;4.05;;
80113;SDS011;69422;45.662;18.992;2023-05-07T12:40:40;6.50;;;3.78;;
80113;SDS011;69422;45.662;18.992;2023-05-07T12:43:17;4.30;;;3.80;;
80113;SDS011;69422;45.662;18.992;2023-05-07T12:45:56;6.57;;;3.53;;
80113;SDS011;69422;45.662;18.992;2023-05-07T12:48:22;4.47;;;3.40;;
80113;SDS011;69422;45.662;18.992;2023-05-07T12:50:51;5.50;;;4.13;;
80113;SDS011;69422;45.662;18.992;2023-05-07T12:53:19;6.50;;;3.80;;
80113;SDS011;69422;45.662;18.992;2023-05-07T13:00:45;6.53;;;4.00;;
80113;SDS011;69422;45.662;18.992;2023-05-07T13:03:15;9.88;;;4.53;;
80113;SDS011;69422;45.662;18.992;2023-05-07T13:05:47;8.27;;;4.03;;
80113;SDS011;69422;45.662;18.992;2023-05-07T13:08:13;5.82;;;4.15;;
80113;SDS011;69422;45.662;18.992;2023-05-07T13:10:58;8.45;;;4.15;;
80113;SDS011;69422;45.662;18.992;2023-05-07T13:13:25;6.75;;;3.92;;
80113;SDS011;69422;45.662;18.992;2023-05-07T13:15:50;9.45;;;4.05;;
80113;SDS011;69422;45.662;18.992;2023-05-07T13:18:16;7.50;;;4.00;;
80113;SDS011;69422;45.662;18.992;2023-05-07T13:20:42;5.95;;;4.40;;
80113;SDS011;69422;45.662;18.992;2023-05-07T13:23:07;7.20;;;4.10;;
80113;SDS011;69422;45.662;18.992;2023-05-07T13:25:33;6.55;;;4.53;;
80113;SDS011;69422;45.662;18.992;2023-05-07T13:27:58;5.88;;;4.05;;
80113;SDS011;69422;45.662;18.992;2023-05-07T13:30:23;10.07;;;5.55;;
80113;SDS011;69422;45.662;18.992;2023-05-07T13:32:49;5.20;;;4.50;;
80113;SDS011;69422;45.662;18.992;2023-05-07T13:35:15;7.45;;;3.85;;
80113;SDS011;69422;45.662;18.992;2023-05-07T13:37:41;6.60;;;4.13;;
80113;SDS011;69422;45.662;18.992;2023-05-07T13:40:07;6.13;;;4.10;;
80113;SDS011;69422;45.662;18.992;2023-05-07T13:42:33;6.88;;;4.32;;
80113;SDS011;69422;45.662;18.992;2023-05-07T13:44:58;6.10;;;3.70;;
80113;SDS011;69422;45.662;18.992;2023-05-07T13:47:23;7.45;;;4.40;;
80113;SDS011;69422;45.662;18.992;2023-05-07T13:49:49;6.20;;;3.97;;
80113;SDS011;69422;45.662;18.992;2023-05-07T13:52:15;5.18;;;4.05;;
80113;SDS011;69422;45.662;18.992;2023-05-07T13:54:41;6.93;;;4.38;;
80113;SDS011;69422;45.662;18.992;2023-05-07T13:57:07;5.15;;;3.65;;
80113;SDS011;69422;45.662;18.992;2023-05-07T13:59:32;4.97;;;3.70;;
80113;SDS011;69422;45.662;18.992;2023-05-07T14:01:58;4.65;;;4.00;;
80113;SDS011;69422;45.662;18.992;2023-05-07T14:04:23;8.25;;;4.00;;
80113;SDS011;69422;45.662;18.992;2023-05-07T14:06:49;5.38;;;3.80;;
80113;SDS011;69422;45.662;18.992;2023-05-07T14:09:14;7.10;;;3.95;;
80113;SDS011;69422;45.662;18.992;2023-05-07T14:11:40;5.55;;;3.67;;
80113;SDS011;69422;45.662;18.992;2023-05-07T14:14:05;6.35;;;3.83;;
80113;SDS011;69422;45.662;18.992;2023-05-07T14:16:30;5.25;;;3.70;;
80113;SDS011;69422;45.662;18.992;2023-05-07T14:18:56;4.38;;;3.58;;
80113;SDS011;69422;45.662;18.992;2023-05-07T14:21:21;4.32;;;3.58;;
80113;SDS011;69422;45.662;18.992;2023-05-07T14:23:47;4.68;;;3.55;;
80113;SDS011;69422;45.662;18.992;2023-05-07T14:26:13;4.38;;;3.47;;
80113;SDS011;69422;45.662;18.992;2023-05-07T14:28:38;4.72;;;3.70;;
80113;SDS011;69422;45.662;18.992;2023-05-07T14:31:04;4.85;;;3.88;;
80113;SDS011;69422;45.662;18.992;2023-05-07T14:33:31;6.20;;;3.90;;
80113;SDS011;69422;45.662;18.992;2023-05-07T14:35:56;3.97;;;3.42;;
80113;SDS011;69422;45.662;18.992;2023-05-07T14:38:22;6.75;;;4.00;;
80113;SDS011;69422;45.662;18.992;2023-05-07T14:40:47;6.90;;;4.00;;
80113;SDS011;69422;45.662;18.992;2023-05-07T14:43:13;5.72;;;3.75;;
80113;SDS011;69422;45.662;18.992;2023-05-07T14:45:38;4.50;;;4.03;;
80113;SDS011;69422;45.662;18.992;2023-05-07T14:48:04;8.48;;;3.85;;
80113;SDS011;69422;45.662;18.992;2023-05-07T14:50:30;5.10;;;3.70;;
80113;SDS011;69422;45.662;18.992;2023-05-07T14:52:55;5.03;;;3.67;;
80113;SDS011;69422;45.662;18.992;2023-05-07T14:55:20;4.60;;;3.80;;
80113;SDS011;69422;45.662;18.992;2023-05-07T14:57:46;5.88;;;3.92;;
80113;SDS011;69422;45.662;18.992;2023-05-07T15:00:11;4.35;;;3.47;;
80113;SDS011;69422;45.662;18.992;2023-05-07T15:02:38;4.00;;;3.28;;